createdAt,value
2022-07-28T00:04:31.748Z,48.80
2022-07-28T00:09:36.265Z,49.24
2022-07-28T00:14:40.374Z,49.55
2022-07-28T00:19:43.229Z,49.17
2022-07-28T00:24:46.158Z,49.53
2022-07-28T00:29:53.361Z,49.53
2022-07-28T00:34:56.044Z,49.38
2022-07-28T00:39:58.735Z,49.52
2022-07-28T00:45:02.747Z,49.37
2022-07-28T00:50:06.039Z,49.64
2022-07-28T00:55:09.233Z,49.90
2022-07-28T01:00:14.035Z,49.82
2022-07-28T01:05:17.108Z,50.07
2022-07-28T01:10:47.555Z,49.75
2022-07-28T01:15:59.087Z,49.80
2022-07-28T01:21:06.191Z,49.86
2022-07-28T01:26:25.616Z,49.85
2022-07-28T01:31:37.525Z,50.12
2022-07-28T01:36:46.209Z,50.17
2022-07-28T01:41:52.825Z,50.34
2022-07-28T01:46:58.847Z,50.24
2022-07-28T01:52:03.188Z,50.30
2022-07-28T01:57:09.711Z,50.33
2022-07-28T02:02:18.758Z,50.49
2022-07-28T02:07:22.369Z,50.38
2022-07-28T02:12:27.203Z,50.30
2022-07-28T02:17:34.439Z,50.40
2022-07-28T02:22:38.998Z,50.45
2022-07-28T02:27:47.763Z,50.60
2022-07-28T02:32:54.941Z,50.27
2022-07-28T02:38:02.797Z,50.35
2022-07-28T02:43:09.822Z,50.72
2022-07-28T02:48:18.371Z,50.81
2022-07-28T02:53:23.601Z,50.92
2022-07-28T02:58:29.489Z,50.77
2022-07-28T03:03:35.727Z,50.87
2022-07-28T03:08:38.735Z,50.83
2022-07-28T03:13:41.779Z,49.77
2022-07-28T03:18:45.892Z,50.20
2022-07-28T03:23:51.292Z,50.29
2022-07-28T03:28:56.325Z,50.55
2022-07-28T03:34:00.637Z,50.80
2022-07-28T03:39:08.584Z,50.98
2022-07-28T03:44:13.307Z,50.97
2022-07-28T03:49:17.565Z,51.23
2022-07-28T03:54:20.336Z,51.25
2022-07-28T03:59:23.441Z,50.86
2022-07-28T04:04:27.628Z,51.35
2022-07-28T04:09:30.270Z,51.16
2022-07-28T04:14:33.168Z,51.44
2022-07-28T04:19:37.421Z,52.16
2022-07-28T04:24:40.096Z,52.10
2022-07-28T04:29:42.740Z,51.58
2022-07-28T04:34:46.790Z,52.47
2022-07-28T04:39:50.668Z,52.25
2022-07-28T04:44:53.941Z,52.25
2022-07-28T04:49:58.078Z,52.94
2022-07-28T04:55:01.075Z,53.19
2022-07-28T05:00:12.314Z,52.97
2022-07-28T05:05:17.448Z,53.13
2022-07-28T05:10:20.517Z,53.80
2022-07-28T05:15:23.202Z,54.68
2022-07-28T05:20:27.431Z,54.64
2022-07-28T05:25:30.071Z,54.80
2022-07-28T05:30:33.028Z,54.54
2022-07-28T05:35:37.026Z,55.12
2022-07-28T05:40:39.795Z,55.52
2022-07-28T05:45:42.663Z,55.12
2022-07-28T05:50:47.304Z,54.70
2022-07-28T05:56:00.221Z,53.65
2022-07-28T06:01:05.030Z,53.16
2022-07-28T06:06:15.071Z,52.91
2022-07-28T06:11:22.810Z,52.06
2022-07-28T06:16:25.877Z,51.81
2022-07-28T06:21:30.130Z,51.46
2022-07-28T06:26:32.837Z,51.61
2022-07-28T06:31:35.802Z,51.50
2022-07-28T06:36:39.853Z,51.77
2022-07-28T06:41:44.471Z,51.89
2022-07-28T06:46:50.146Z,51.87
2022-07-28T06:51:54.790Z,51.28
2022-07-28T06:56:57.476Z,51.33
2022-07-28T07:02:01.858Z,51.60
2022-07-28T07:07:14.989Z,51.95
2022-07-28T07:12:19.589Z,51.90
2022-07-28T07:17:22.364Z,52.06
2022-07-28T07:22:26.858Z,51.87
2022-07-28T07:27:29.562Z,51.72
2022-07-28T07:32:32.602Z,51.94
2022-07-28T07:37:36.712Z,52.21
2022-07-28T07:42:39.687Z,51.81
2022-07-28T07:47:42.474Z,51.50
2022-07-28T07:52:46.539Z,51.32
2022-07-28T07:57:49.231Z,50.63
2022-07-28T08:02:51.939Z,49.27
2022-07-28T08:07:55.966Z,48.37
2022-07-28T08:12:58.595Z,48.64
2022-07-28T08:18:01.623Z,48.32
2022-07-28T08:23:05.774Z,48.07
2022-07-28T08:28:08.418Z,47.63
2022-07-28T08:33:11.057Z,47.50
2022-07-28T08:38:15.303Z,47.98
2022-07-28T08:43:26.958Z,47.23
2022-07-28T08:48:32.544Z,47.24
2022-07-28T08:53:38.585Z,47.17
2022-07-28T08:58:41.611Z,47.71
2022-07-28T09:03:45.347Z,46.93
2022-07-28T09:08:49.521Z,46.40
2022-07-28T09:13:54.128Z,46.04
2022-07-28T09:18:57.078Z,46.32
2022-07-28T09:24:01.590Z,45.95
2022-07-28T09:29:07.518Z,46.57
2022-07-28T09:34:10.382Z,44.77
2022-07-28T09:39:30.237Z,46.15
2022-07-28T09:44:33.095Z,46.20
2022-07-28T09:49:43.635Z,45.20
2022-07-28T09:55:00.718Z,45.20
2022-07-28T10:00:05.970Z,45.29
2022-07-28T10:05:14.033Z,44.76
2022-07-28T10:10:22.076Z,44.85
2022-07-28T10:15:46.799Z,44.93
2022-07-28T10:20:54.015Z,45.13
2022-07-28T10:26:00.111Z,44.58
2022-07-28T10:31:03.577Z,43.31
2022-07-28T10:36:07.782Z,44.38
2022-07-28T10:41:14.981Z,42.84
2022-07-28T10:46:18.457Z,43.26
2022-07-28T10:51:22.316Z,43.26
2022-07-28T10:56:42.862Z,43.37
2022-07-28T11:01:49.175Z,42.27
2022-07-28T11:06:55.683Z,42.43
2022-07-28T11:11:59.958Z,43.58
2022-07-28T11:17:24.064Z,44.68
2022-07-28T11:22:33.248Z,43.37
2022-07-28T11:28:04.434Z,42.25
2022-07-28T11:33:09.216Z,42.21
2022-07-28T11:38:13.895Z,43.53
2022-07-28T11:43:39.543Z,42.27
2022-07-28T11:48:44.622Z,41.99
2022-07-28T11:53:49.271Z,43.12
2022-07-28T11:58:59.500Z,42.16
2022-07-28T12:04:12.229Z,42.99
2022-07-28T12:09:21.873Z,42.94
2022-07-28T12:14:30.231Z,43.92
2022-07-28T12:19:33.253Z,42.45
2022-07-28T12:24:46.078Z,42.78
2022-07-28T12:29:58.874Z,42.53
2022-07-28T12:35:01.855Z,42.42
2022-07-28T12:40:05.291Z,42.36
2022-07-28T12:45:10.938Z,42.32
2022-07-28T12:50:15.918Z,41.53
2022-07-28T12:55:23.921Z,41.78
2022-07-28T13:00:31.062Z,41.83
2022-07-28T13:05:50.554Z,42.80
2022-07-28T13:10:57.475Z,45.02
2022-07-28T13:16:17.376Z,43.87
2022-07-28T13:21:38.501Z,44.66
2022-07-28T13:26:44.145Z,42.51
2022-07-28T13:31:48.971Z,41.40
2022-07-28T13:36:52.487Z,41.57
2022-07-28T13:41:58.410Z,42.55
2022-07-28T13:47:04.821Z,42.06
2022-07-28T13:52:13.101Z,42.23
2022-07-28T13:57:16.776Z,42.09
2022-07-28T14:02:22.190Z,41.55
2022-07-28T14:07:28.818Z,41.68
2022-07-28T14:12:31.482Z,41.66
2022-07-28T14:17:45.635Z,41.93
2022-07-28T14:22:49.079Z,41.82
2022-07-28T14:27:52.705Z,40.40
2022-07-28T14:32:57.957Z,41.00
2022-07-28T14:38:50.244Z,40.85
2022-07-28T14:43:23.423Z,41.04
2022-07-28T14:48:27.589Z,40.43
2022-07-28T14:53:30.245Z,40.71
2022-07-28T14:58:32.955Z,40.08
2022-07-28T15:03:37.015Z,40.00
2022-07-28T15:08:39.718Z,39.51
2022-07-28T15:13:42.449Z,40.14
2022-07-28T15:18:46.641Z,40.22
2022-07-28T15:23:49.430Z,39.81
2022-07-28T15:28:52.119Z,39.63
2022-07-28T15:33:57.683Z,39.66
2022-07-28T15:39:00.925Z,39.19
2022-07-28T15:44:05.127Z,39.17
2022-07-28T15:49:10.821Z,39.46
2022-07-28T15:54:13.832Z,39.77
2022-07-28T15:59:16.775Z,39.78
2022-07-28T16:04:20.800Z,39.41
2022-07-28T16:09:23.658Z,39.11
2022-07-28T16:14:26.391Z,38.65
2022-07-28T16:19:47.750Z,39.00
2022-07-28T16:24:53.062Z,39.11
2022-07-28T16:29:55.946Z,38.71
2022-07-28T16:35:00.737Z,38.71
2022-07-28T16:40:04.283Z,38.51
2022-07-28T16:45:08.175Z,38.58
2022-07-28T16:50:12.599Z,38.50
2022-07-28T16:55:18.897Z,38.27
2022-07-28T17:00:25.886Z,38.09
2022-07-28T17:05:30.111Z,38.24
2022-07-28T17:10:32.949Z,38.05
2022-07-28T17:15:35.677Z,37.59
2022-07-28T17:20:42.017Z,37.56
2022-07-28T17:31:07.510Z,37.79
2022-07-28T17:36:11.531Z,37.86
2022-07-28T17:41:14.239Z,38.61
2022-07-28T17:46:17.734Z,38.30
2022-07-28T17:51:26.633Z,38.41
2022-07-28T17:56:31.203Z,38.05
2022-07-28T18:01:34.478Z,38.99
2022-07-28T18:06:40.286Z,39.66
2022-07-28T18:11:56.442Z,41.07
2022-07-28T18:17:01.019Z,42.15
2022-07-28T18:22:05.388Z,40.33
2022-07-28T18:27:08.205Z,39.58
2022-07-28T18:32:12.496Z,39.41
2022-07-28T18:37:16.674Z,39.48
2022-07-28T18:42:19.361Z,40.35
2022-07-28T18:47:22.173Z,40.89
2022-07-28T18:52:27.002Z,40.27
2022-07-28T18:57:29.911Z,40.87
2022-07-28T19:02:32.933Z,41.12
2022-07-28T19:07:37.327Z,41.82
2022-07-28T19:12:40.041Z,41.43
2022-07-28T19:17:42.884Z,41.21
2022-07-28T19:22:47.026Z,41.33
2022-07-28T19:27:49.757Z,41.31
2022-07-28T19:32:52.547Z,42.38
2022-07-28T19:37:59.656Z,41.72
2022-07-28T19:43:02.564Z,41.52
2022-07-28T19:48:07.368Z,41.93
2022-07-28T19:53:15.056Z,41.69
2022-07-28T19:58:18.399Z,41.82
2022-07-28T20:04:01.475Z,42.30
2022-07-28T20:08:45.615Z,42.36
2022-07-28T20:13:49.333Z,42.50
2022-07-28T20:18:52.619Z,42.15
2022-07-28T20:23:58.055Z,42.16
2022-07-28T20:29:01.608Z,42.26
2022-07-28T20:34:06.656Z,42.27
2022-07-28T20:39:34.341Z,42.70
2022-07-28T20:44:33.782Z,42.86
2022-07-28T20:49:40.251Z,42.83
2022-07-28T20:54:44.268Z,42.87
2022-07-28T20:59:48.835Z,42.79
2022-07-28T21:04:51.553Z,42.70
2022-07-28T21:09:55.675Z,42.62
2022-07-28T21:14:58.399Z,42.89
2022-07-28T21:20:01.368Z,42.92
2022-07-28T21:25:07.268Z,43.67
2022-07-28T21:30:11.406Z,43.77
2022-07-28T21:35:14.530Z,43.88
2022-07-28T21:40:18.708Z,44.02
2022-07-28T21:45:22.204Z,44.15
2022-07-28T21:50:25.187Z,44.28
2022-07-28T21:55:29.525Z,44.12
2022-07-28T22:00:32.667Z,43.95
2022-07-28T22:05:35.739Z,44.26
2022-07-28T22:10:39.992Z,44.07
2022-07-28T22:15:42.793Z,44.05
2022-07-28T22:20:45.509Z,44.19
2022-07-28T22:25:49.540Z,44.08
2022-07-28T22:30:53.248Z,44.18
2022-07-28T22:35:55.931Z,44.16
2022-07-28T22:41:00.935Z,44.27
2022-07-28T22:46:03.722Z,43.90
2022-07-28T22:51:10.978Z,44.06
2022-07-28T22:56:15.162Z,44.09
2022-07-28T23:01:17.958Z,44.07
2022-07-28T23:06:21.010Z,44.15
2022-07-28T23:11:25.119Z,44.28
2022-07-28T23:16:27.987Z,44.30
2022-07-28T23:21:30.763Z,44.32
2022-07-28T23:26:34.813Z,44.24
2022-07-28T23:31:37.831Z,44.33
2022-07-28T23:36:40.681Z,44.39
2022-07-28T23:41:44.809Z,44.44
2022-07-28T23:46:47.592Z,44.51
2022-07-28T23:51:50.338Z,44.87
2022-07-28T23:56:56.540Z,44.81
